sensor_id;sensor_type;location;lat;lon;timestamp;P1;durP1;ratioP1;P2;durP2;ratioP2
43706;SDS011;61348;53.392;-6.248;2022-08-18T00:00:29;5.53;;;2.10;;
43706;SDS011;61348;53.392;-6.248;2022-08-18T00:02:58;4.03;;;1.88;;
43706;SDS011;61348;53.392;-6.248;2022-08-18T00:05:50;5.28;;;2.10;;
43706;SDS011;61348;53.392;-6.248;2022-08-18T00:08:18;3.25;;;2.40;;
43706;SDS011;61348;53.392;-6.248;2022-08-18T00:10:45;4.50;;;2.47;;
43706;SDS011;61348;53.392;-6.248;2022-08-18T00:13:12;4.50;;;2.40;;
43706;SDS011;61348;53.392;-6.248;2022-08-18T00:15:38;3.33;;;2.28;;
43706;SDS011;61348;53.392;-6.248;2022-08-18T00:18:14;5.28;;;2.67;;
43706;SDS011;61348;53.392;-6.248;2022-08-18T00:20:41;5.22;;;2.60;;
43706;SDS011;61348;53.392;-6.248;2022-08-18T00:23:08;7.35;;;3.15;;
43706;SDS011;61348;53.392;-6.248;2022-08-18T00:25:34;4.50;;;2.72;;
43706;SDS011;61348;53.392;-6.248;2022-08-18T00:28:02;5.15;;;2.53;;
43706;SDS011;61348;53.392;-6.248;2022-08-18T00:30:30;6.80;;;3.15;;
43706;SDS011;61348;53.392;-6.248;2022-08-18T00:32:58;4.60;;;2.30;;
43706;SDS011;61348;53.392;-6.248;2022-08-18T00:35:35;4.95;;;2.65;;
43706;SDS011;61348;53.392;-6.248;2022-08-18T00:38:04;5.68;;;4.57;;
43706;SDS011;61348;53.392;-6.248;2022-08-18T00:40:39;3.95;;;2.63;;
43706;SDS011;61348;53.392;-6.248;2022-08-18T00:43:12;5.15;;;2.78;;
43706;SDS011;61348;53.392;-6.248;2022-08-18T00:45:44;3.90;;;2.38;;
43706;SDS011;61348;53.392;-6.248;2022-08-18T00:48:12;6.28;;;3.10;;
43706;SDS011;61348;53.392;-6.248;2022-08-18T00:50:44;7.22;;;2.38;;
43706;SDS011;61348;53.392;-6.248;2022-08-18T00:53:20;4.05;;;2.53;;
43706;SDS011;61348;53.392;-6.248;2022-08-18T00:55:53;7.38;;;2.97;;
43706;SDS011;61348;53.392;-6.248;2022-08-18T00:58:28;5.68;;;2.63;;
43706;SDS011;61348;53.392;-6.248;2022-08-18T01:01:02;5.22;;;2.58;;
43706;SDS011;61348;53.392;-6.248;2022-08-18T01:03:31;2.20;;;2.00;;
43706;SDS011;61348;53.392;-6.248;2022-08-18T01:06:02;4.55;;;2.22;;
43706;SDS011;61348;53.392;-6.248;2022-08-18T01:08:35;3.88;;;2.45;;
43706;SDS011;61348;53.392;-6.248;2022-08-18T01:11:12;5.63;;;2.30;;
43706;SDS011;61348;53.392;-6.248;2022-08-18T01:13:39;2.55;;;2.33;;
43706;SDS011;61348;53.392;-6.248;2022-08-18T01:16:07;4.28;;;2.55;;
43706;SDS011;61348;53.392;-6.248;2022-08-18T01:18:53;4.05;;;2.70;;
43706;SDS011;61348;53.392;-6.248;2022-08-18T01:21:40;6.80;;;2.40;;
43706;SDS011;61348;53.392;-6.248;2022-08-18T01:24:26;4.10;;;2.58;;
43706;SDS011;61348;53.392;-6.248;2022-08-18T01:27:14;4.72;;;2.83;;
43706;SDS011;61348;53.392;-6.248;2022-08-18T01:29:47;4.25;;;2.20;;
43706;SDS011;61348;53.392;-6.248;2022-08-18T01:32:16;9.10;;;3.20;;
43706;SDS011;61348;53.392;-6.248;2022-08-18T01:34:46;7.80;;;2.85;;
43706;SDS011;61348;53.392;-6.248;2022-08-18T01:37:20;5.80;;;2.78;;
43706;SDS011;61348;53.392;-6.248;2022-08-18T01:39:49;6.07;;;2.65;;
43706;SDS011;61348;53.392;-6.248;2022-08-18T01:42:36;4.97;;;2.92;;
43706;SDS011;61348;53.392;-6.248;2022-08-18T01:45:03;3.47;;;2.28;;
43706;SDS011;61348;53.392;-6.248;2022-08-18T01:47:34;6.10;;;3.17;;
43706;SDS011;61348;53.392;-6.248;2022-08-18T01:50:21;7.68;;;2.72;;
43706;SDS011;61348;53.392;-6.248;2022-08-18T01:52:48;5.53;;;2.67;;
43706;SDS011;61348;53.392;-6.248;2022-08-18T01:55:15;6.60;;;3.63;;
43706;SDS011;61348;53.392;-6.248;2022-08-18T01:57:44;3.65;;;2.47;;
43706;SDS011;61348;53.392;-6.248;2022-08-18T02:00:11;4.53;;;2.97;;
43706;SDS011;61348;53.392;-6.248;2022-08-18T02:02:41;5.25;;;2.47;;
43706;SDS011;61348;53.392;-6.248;2022-08-18T02:05:10;3.58;;;2.75;;
43706;SDS011;61348;53.392;-6.248;2022-08-18T02:07:44;4.25;;;2.83;;
43706;SDS011;61348;53.392;-6.248;2022-08-18T02:10:12;4.38;;;1.95;;
43706;SDS011;61348;53.392;-6.248;2022-08-18T02:12:41;3.08;;;2.30;;
43706;SDS011;61348;53.392;-6.248;2022-08-18T02:15:09;7.65;;;2.67;;
43706;SDS011;61348;53.392;-6.248;2022-08-18T02:17:39;4.03;;;2.50;;
43706;SDS011;61348;53.392;-6.248;2022-08-18T02:20:07;1.98;;;1.83;;
43706;SDS011;61348;53.392;-6.248;2022-08-18T02:22:36;5.20;;;2.92;;
43706;SDS011;61348;53.392;-6.248;2022-08-18T02:25:03;3.83;;;2.05;;
43706;SDS011;61348;53.392;-6.248;2022-08-18T02:27:32;4.68;;;2.00;;
43706;SDS011;61348;53.392;-6.248;2022-08-18T02:30:00;3.88;;;1.92;;
43706;SDS011;61348;53.392;-6.248;2022-08-18T02:32:30;4.70;;;2.38;;
43706;SDS011;61348;53.392;-6.248;2022-08-18T02:34:57;7.85;;;3.63;;
43706;SDS011;61348;53.392;-6.248;2022-08-18T02:37:24;8.45;;;2.58;;
43706;SDS011;61348;53.392;-6.248;2022-08-18T02:39:51;3.60;;;2.25;;
43706;SDS011;61348;53.392;-6.248;2022-08-18T02:42:18;3.40;;;2.72;;
43706;SDS011;61348;53.392;-6.248;2022-08-18T02:44:45;3.95;;;2.35;;
43706;SDS011;61348;53.392;-6.248;2022-08-18T02:47:12;3.88;;;2.20;;
43706;SDS011;61348;53.392;-6.248;2022-08-18T02:49:39;5.63;;;2.72;;
43706;SDS011;61348;53.392;-6.248;2022-08-18T02:52:06;4.90;;;2.70;;
43706;SDS011;61348;53.392;-6.248;2022-08-18T02:54:35;6.07;;;2.28;;
43706;SDS011;61348;53.392;-6.248;2022-08-18T02:57:09;7.10;;;3.58;;
43706;SDS011;61348;53.392;-6.248;2022-08-18T02:59:38;5.20;;;2.45;;
43706;SDS011;61348;53.392;-6.248;2022-08-18T03:02:06;6.22;;;2.63;;
43706;SDS011;61348;53.392;-6.248;2022-08-18T03:04:34;6.50;;;2.42;;
43706;SDS011;61348;53.392;-6.248;2022-08-18T03:07:02;4.80;;;2.13;;
43706;SDS011;61348;53.392;-6.248;2022-08-18T03:09:31;4.82;;;2.38;;
43706;SDS011;61348;53.392;-6.248;2022-08-18T03:11:59;5.15;;;2.60;;
43706;SDS011;61348;53.392;-6.248;2022-08-18T03:14:27;5.05;;;2.25;;
43706;SDS011;61348;53.392;-6.248;2022-08-18T03:16:54;5.53;;;2.40;;
43706;SDS011;61348;53.392;-6.248;2022-08-18T03:19:22;5.40;;;2.97;;
43706;SDS011;61348;53.392;-6.248;2022-08-18T03:21:50;5.47;;;3.40;;
43706;SDS011;61348;53.392;-6.248;2022-08-18T03:24:18;4.63;;;2.45;;
43706;SDS011;61348;53.392;-6.248;2022-08-18T03:26:49;5.38;;;2.58;;
43706;SDS011;61348;53.392;-6.248;2022-08-18T03:29:17;3.33;;;2.45;;
43706;SDS011;61348;53.392;-6.248;2022-08-18T03:31:44;8.93;;;2.58;;
43706;SDS011;61348;53.392;-6.248;2022-08-18T03:34:15;9.50;;;2.80;;
43706;SDS011;61348;53.392;-6.248;2022-08-18T03:36:47;4.80;;;2.45;;
43706;SDS011;61348;53.392;-6.248;2022-08-18T03:39:17;5.00;;;2.50;;
43706;SDS011;61348;53.392;-6.248;2022-08-18T03:41:45;4.18;;;2.45;;
43706;SDS011;61348;53.392;-6.248;2022-08-18T03:44:26;7.13;;;2.42;;
43706;SDS011;61348;53.392;-6.248;2022-08-18T03:46:58;7.60;;;2.78;;
43706;SDS011;61348;53.392;-6.248;2022-08-18T03:49:26;4.25;;;2.45;;
43706;SDS011;61348;53.392;-6.248;2022-08-18T03:51:53;3.95;;;2.58;;
43706;SDS011;61348;53.392;-6.248;2022-08-18T03:54:21;6.60;;;2.83;;
43706;SDS011;61348;53.392;-6.248;2022-08-18T03:56:48;4.60;;;2.30;;
43706;SDS011;61348;53.392;-6.248;2022-08-18T03:59:17;4.55;;;2.35;;
43706;SDS011;61348;53.392;-6.248;2022-08-18T04:01:47;3.30;;;2.22;;
43706;SDS011;61348;53.392;-6.248;2022-08-18T04:04:17;2.67;;;2.47;;
43706;SDS011;61348;53.392;-6.248;2022-08-18T04:06:47;3.75;;;2.55;;
43706;SDS011;61348;53.392;-6.248;2022-08-18T04:09:19;3.35;;;2.38;;
43706;SDS011;61348;53.392;-6.248;2022-08-18T04:11:48;4.30;;;2.60;;
43706;SDS011;61348;53.392;-6.248;2022-08-18T04:14:17;4.32;;;3.10;;
43706;SDS011;61348;53.392;-6.248;2022-08-18T04:16:45;5.47;;;2.75;;
43706;SDS011;61348;53.392;-6.248;2022-08-18T04:19:15;6.45;;;3.25;;
43706;SDS011;61348;53.392;-6.248;2022-08-18T04:21:53;5.18;;;3.10;;
43706;SDS011;61348;53.392;-6.248;2022-08-18T04:24:22;3.65;;;3.00;;
43706;SDS011;61348;53.392;-6.248;2022-08-18T04:26:54;4.65;;;2.25;;
43706;SDS011;61348;53.392;-6.248;2022-08-18T04:29:22;6.00;;;2.88;;
43706;SDS011;61348;53.392;-6.248;2022-08-18T04:31:49;5.70;;;2.92;;
43706;SDS011;61348;53.392;-6.248;2022-08-18T04:34:17;6.28;;;3.28;;
43706;SDS011;61348;53.392;-6.248;2022-08-18T04:36:46;7.43;;;3.63;;
43706;SDS011;61348;53.392;-6.248;2022-08-18T04:39:13;5.35;;;2.90;;
43706;SDS011;61348;53.392;-6.248;2022-08-18T04:41:42;4.55;;;2.95;;
43706;SDS011;61348;53.392;-6.248;2022-08-18T04:44:10;4.45;;;2.97;;
43706;SDS011;61348;53.392;-6.248;2022-08-18T04:46:39;6.75;;;3.85;;
43706;SDS011;61348;53.392;-6.248;2022-08-18T04:49:11;7.47;;;3.35;;
43706;SDS011;61348;53.392;-6.248;2022-08-18T04:51:40;6.05;;;2.88;;
43706;SDS011;61348;53.392;-6.248;2022-08-18T04:54:54;4.35;;;3.75;;
43706;SDS011;61348;53.392;-6.248;2022-08-18T04:57:21;5.43;;;2.70;;
43706;SDS011;61348;53.392;-6.248;2022-08-18T04:59:49;5.60;;;3.20;;
43706;SDS011;61348;53.392;-6.248;2022-08-18T05:02:18;5.28;;;3.00;;
43706;SDS011;61348;53.392;-6.248;2022-08-18T05:04:46;4.47;;;3.88;;
43706;SDS011;61348;53.392;-6.248;2022-08-18T05:07:14;7.60;;;4.82;;
43706;SDS011;61348;53.392;-6.248;2022-08-18T05:09:46;9.35;;;2.72;;
43706;SDS011;61348;53.392;-6.248;2022-08-18T05:12:13;4.10;;;2.92;;
43706;SDS011;61348;53.392;-6.248;2022-08-18T05:14:41;4.95;;;2.80;;
43706;SDS011;61348;53.392;-6.248;2022-08-18T05:17:13;4.88;;;2.80;;
43706;SDS011;61348;53.392;-6.248;2022-08-18T05:19:41;3.85;;;2.72;;
43706;SDS011;61348;53.392;-6.248;2022-08-18T05:22:10;3.75;;;2.70;;
43706;SDS011;61348;53.392;-6.248;2022-08-18T05:24:43;5.88;;;3.00;;
43706;SDS011;61348;53.392;-6.248;2022-08-18T05:27:11;4.88;;;3.35;;
43706;SDS011;61348;53.392;-6.248;2022-08-18T05:29:39;6.40;;;3.03;;
43706;SDS011;61348;53.392;-6.248;2022-08-18T05:32:12;6.13;;;3.00;;
43706;SDS011;61348;53.392;-6.248;2022-08-18T05:35:07;3.35;;;2.45;;
43706;SDS011;61348;53.392;-6.248;2022-08-18T05:40:05;3.97;;;3.13;;
43706;SDS011;61348;53.392;-6.248;2022-08-18T05:45:12;4.40;;;2.50;;
43706;SDS011;61348;53.392;-6.248;2022-08-18T05:47:42;5.82;;;2.92;;
43706;SDS011;61348;53.392;-6.248;2022-08-18T05:50:13;3.63;;;2.63;;
43706;SDS011;61348;53.392;-6.248;2022-08-18T05:53:04;5.38;;;2.72;;
43706;SDS011;61348;53.392;-6.248;2022-08-18T05:56:01;4.60;;;2.47;;
43706;SDS011;61348;53.392;-6.248;2022-08-18T05:58:50;5.50;;;2.60;;
43706;SDS011;61348;53.392;-6.248;2022-08-18T06:01:21;3.25;;;2.47;;
43706;SDS011;61348;53.392;-6.248;2022-08-18T06:03:55;2.90;;;2.40;;
43706;SDS011;61348;53.392;-6.248;2022-08-18T06:06:27;5.20;;;2.70;;
43706;SDS011;61348;53.392;-6.248;2022-08-18T06:12:15;4.57;;;2.88;;
43706;SDS011;61348;53.392;-6.248;2022-08-18T06:14:48;5.32;;;2.90;;
43706;SDS011;61348;53.392;-6.248;2022-08-18T06:17:29;2.22;;;1.80;;
43706;SDS011;61348;53.392;-6.248;2022-08-18T06:20:18;3.42;;;2.17;;
43706;SDS011;61348;53.392;-6.248;2022-08-18T06:28:22;2.97;;;1.77;;
43706;SDS011;61348;53.392;-6.248;2022-08-18T06:31:02;4.50;;;2.08;;
43706;SDS011;61348;53.392;-6.248;2022-08-18T06:42:00;2.15;;;1.63;;
43706;SDS011;61348;53.392;-6.248;2022-08-18T06:44:41;2.30;;;1.10;;
43706;SDS011;61348;53.392;-6.248;2022-08-18T06:52:33;2.97;;;1.70;;
43706;SDS011;61348;53.392;-6.248;2022-08-18T06:57:37;2.63;;;1.02;;
43706;SDS011;61348;53.392;-6.248;2022-08-18T07:02:49;1.90;;;1.67;;
43706;SDS011;61348;53.392;-6.248;2022-08-18T07:08:08;1.65;;;1.13;;
43706;SDS011;61348;53.392;-6.248;2022-08-18T07:11:09;2.75;;;1.10;;
43706;SDS011;61348;53.392;-6.248;2022-08-18T07:13:39;0.93;;;0.60;;
43706;SDS011;61348;53.392;-6.248;2022-08-18T07:19:10;1.05;;;0.55;;
43706;SDS011;61348;53.392;-6.248;2022-08-18T07:21:42;1.33;;;0.70;;
43706;SDS011;61348;53.392;-6.248;2022-08-18T07:24:11;2.28;;;0.22;;
43706;SDS011;61348;53.392;-6.248;2022-08-18T07:27:02;0.88;;;0.60;;
43706;SDS011;61348;53.392;-6.248;2022-08-18T07:29:40;0.47;;;0.47;;
43706;SDS011;61348;53.392;-6.248;2022-08-18T07:32:49;1.17;;;0.52;;
43706;SDS011;61348;53.392;-6.248;2022-08-18T07:35:27;0.70;;;0.43;;
43706;SDS011;61348;53.392;-6.248;2022-08-18T07:38:02;0.30;;;0.15;;
43706;SDS011;61348;53.392;-6.248;2022-08-18T07:41:02;0.63;;;0.35;;
43706;SDS011;61348;53.392;-6.248;2022-08-18T07:47:06;0.20;;;0.20;;
43706;SDS011;61348;53.392;-6.248;2022-08-18T07:49:15;0.20;;;0.20;;
43706;SDS011;61348;53.392;-6.248;2022-08-18T07:52:05;1.25;;;0.20;;
43706;SDS011;61348;53.392;-6.248;2022-08-18T08:00:21;0.10;;;0.10;;
43706;SDS011;61348;53.392;-6.248;2022-08-18T08:06:15;0.80;;;0.35;;
43706;SDS011;61348;53.392;-6.248;2022-08-18T08:11:55;1.45;;;0.00;;
43706;SDS011;61348;53.392;-6.248;2022-08-18T08:14:50;0.60;;;0.22;;
43706;SDS011;61348;53.392;-6.248;2022-08-18T08:17:51;0.13;;;0.13;;
43706;SDS011;61348;53.392;-6.248;2022-08-18T08:20:26;0.25;;;0.10;;
43706;SDS011;61348;53.392;-6.248;2022-08-18T08:28:57;0.30;;;0.20;;
43706;SDS011;61348;53.392;-6.248;2022-08-18T08:31:57;2.38;;;0.30;;
43706;SDS011;61348;53.392;-6.248;2022-08-18T08:37:17;1.85;;;0.10;;
43706;SDS011;61348;53.392;-6.248;2022-08-18T08:39:54;0.90;;;0.20;;
43706;SDS011;61348;53.392;-6.248;2022-08-18T08:45:25;0.13;;;0.03;;
43706;SDS011;61348;53.392;-6.248;2022-08-18T08:48:06;0.38;;;0.15;;
43706;SDS011;61348;53.392;-6.248;2022-08-18T08:50:49;0.68;;;0.20;;
43706;SDS011;61348;53.392;-6.248;2022-08-18T08:54:07;0.50;;;0.30;;
43706;SDS011;61348;53.392;-6.248;2022-08-18T08:56:13;1.60;;;0.28;;
43706;SDS011;61348;53.392;-6.248;2022-08-18T08:58:44;1.70;;;0.25;;
43706;SDS011;61348;53.392;-6.248;2022-08-18T09:10:39;1.85;;;0.20;;
43706;SDS011;61348;53.392;-6.248;2022-08-18T09:26:50;0.80;;;0.20;;
43706;SDS011;61348;53.392;-6.248;2022-08-18T09:37:25;0.47;;;0.45;;
43706;SDS011;61348;53.392;-6.248;2022-08-18T09:40:00;0.93;;;0.30;;
43706;SDS011;61348;53.392;-6.248;2022-08-18T09:43:31;0.85;;;0.40;;
43706;SDS011;61348;53.392;-6.248;2022-08-18T09:46:05;1.98;;;0.68;;
43706;SDS011;61348;53.392;-6.248;2022-08-18T09:48:38;1.55;;;0.30;;
43706;SDS011;61348;53.392;-6.248;2022-08-18T09:56:14;1.35;;;0.30;;
43706;SDS011;61348;53.392;-6.248;2022-08-18T09:59:03;1.13;;;0.20;;
43706;SDS011;61348;53.392;-6.248;2022-08-18T10:01:37;0.40;;;0.20;;
43706;SDS011;61348;53.392;-6.248;2022-08-18T10:04:24;1.70;;;0.40;;
43706;SDS011;61348;53.392;-6.248;2022-08-18T10:07:12;0.40;;;0.40;;
43706;SDS011;61348;53.392;-6.248;2022-08-18T10:13:07;1.77;;;0.40;;
43706;SDS011;61348;53.392;-6.248;2022-08-18T10:22:00;0.50;;;0.20;;
43706;SDS011;61348;53.392;-6.248;2022-08-18T10:24:29;0.40;;;0.20;;
43706;SDS011;61348;53.392;-6.248;2022-08-18T10:29:42;0.95;;;0.30;;
43706;SDS011;61348;53.392;-6.248;2022-08-18T10:34:43;0.38;;;0.20;;
43706;SDS011;61348;53.392;-6.248;2022-08-18T10:37:22;1.33;;;0.22;;
43706;SDS011;61348;53.392;-6.248;2022-08-18T10:40:32;0.52;;;0.32;;
43706;SDS011;61348;53.392;-6.248;2022-08-18T10:46:24;0.55;;;0.13;;
43706;SDS011;61348;53.392;-6.248;2022-08-18T10:49:03;1.95;;;0.30;;
43706;SDS011;61348;53.392;-6.248;2022-08-18T10:51:39;0.28;;;0.28;;
43706;SDS011;61348;53.392;-6.248;2022-08-18T11:00:17;1.45;;;0.20;;
43706;SDS011;61348;53.392;-6.248;2022-08-18T11:06:02;3.30;;;0.20;;
43706;SDS011;61348;53.392;-6.248;2022-08-18T11:08:43;0.88;;;0.10;;
43706;SDS011;61348;53.392;-6.248;2022-08-18T11:11:23;0.10;;;0.10;;
43706;SDS011;61348;53.392;-6.248;2022-08-18T11:16:47;0.80;;;0.20;;
43706;SDS011;61348;53.392;-6.248;2022-08-18T11:19:27;0.10;;;0.10;;
43706;SDS011;61348;53.392;-6.248;2022-08-18T11:22:19;0.60;;;0.15;;
43706;SDS011;61348;53.392;-6.248;2022-08-18T11:24:58;0.10;;;0.10;;
43706;SDS011;61348;53.392;-6.248;2022-08-18T11:27:29;0.25;;;0.20;;
43706;SDS011;61348;53.392;-6.248;2022-08-18T11:30:05;1.55;;;0.10;;
43706;SDS011;61348;53.392;-6.248;2022-08-18T11:32:39;1.25;;;0.25;;
43706;SDS011;61348;53.392;-6.248;2022-08-18T11:35:20;1.67;;;0.17;;
43706;SDS011;61348;53.392;-6.248;2022-08-18T11:37:54;0.10;;;0.10;;
43706;SDS011;61348;53.392;-6.248;2022-08-18T11:40:39;1.67;;;0.13;;
43706;SDS011;61348;53.392;-6.248;2022-08-18T11:43:32;1.50;;;0.30;;
43706;SDS011;61348;53.392;-6.248;2022-08-18T11:46:11;2.63;;;0.00;;
43706;SDS011;61348;53.392;-6.248;2022-08-18T11:48:56;0.30;;;0.10;;
43706;SDS011;61348;53.392;-6.248;2022-08-18T11:51:34;0.85;;;0.10;;
43706;SDS011;61348;53.392;-6.248;2022-08-18T11:54:03;0.52;;;0.00;;
43706;SDS011;61348;53.392;-6.248;2022-08-18T11:56:50;0.10;;;0.10;;
43706;SDS011;61348;53.392;-6.248;2022-08-18T12:02:17;0.55;;;0.10;;
43706;SDS011;61348;53.392;-6.248;2022-08-18T12:04:53;1.65;;;0.17;;
43706;SDS011;61348;53.392;-6.248;2022-08-18T12:07:39;0.03;;;0.03;;
43706;SDS011;61348;53.392;-6.248;2022-08-18T12:10:24;0.03;;;0.03;;
43706;SDS011;61348;53.392;-6.248;2022-08-18T12:12:56;0.65;;;0.20;;
43706;SDS011;61348;53.392;-6.248;2022-08-18T12:15:30;1.00;;;0.10;;
43706;SDS011;61348;53.392;-6.248;2022-08-18T12:18:12;0.10;;;0.10;;
43706;SDS011;61348;53.392;-6.248;2022-08-18T12:23:22;0.40;;;0.20;;
43706;SDS011;61348;53.392;-6.248;2022-08-18T12:25:49;0.10;;;0.10;;
43706;SDS011;61348;53.392;-6.248;2022-08-18T12:28:17;0.15;;;0.15;;
43706;SDS011;61348;53.392;-6.248;2022-08-18T12:30:48;0.95;;;0.10;;
43706;SDS011;61348;53.392;-6.248;2022-08-18T12:33:25;0.20;;;0.10;;
43706;SDS011;61348;53.392;-6.248;2022-08-18T12:36:12;0.10;;;0.10;;
43706;SDS011;61348;53.392;-6.248;2022-08-18T12:38:41;0.10;;;0.10;;
43706;SDS011;61348;53.392;-6.248;2022-08-18T12:41:18;0.20;;;0.20;;
43706;SDS011;61348;53.392;-6.248;2022-08-18T12:43:52;0.20;;;0.10;;
43706;SDS011;61348;53.392;-6.248;2022-08-18T12:46:24;1.65;;;0.30;;
43706;SDS011;61348;53.392;-6.248;2022-08-18T12:48:53;2.35;;;0.20;;
43706;SDS011;61348;53.392;-6.248;2022-08-18T12:51:21;0.10;;;0.10;;
43706;SDS011;61348;53.392;-6.248;2022-08-18T12:53:56;0.30;;;0.20;;
43706;SDS011;61348;53.392;-6.248;2022-08-18T12:56:25;2.90;;;0.30;;
43706;SDS011;61348;53.392;-6.248;2022-08-18T12:58:58;1.05;;;0.20;;
43706;SDS011;61348;53.392;-6.248;2022-08-18T13:01:30;1.20;;;0.10;;
43706;SDS011;61348;53.392;-6.248;2022-08-18T13:03:59;0.35;;;0.20;;
43706;SDS011;61348;53.392;-6.248;2022-08-18T13:06:40;0.57;;;0.30;;
43706;SDS011;61348;53.392;-6.248;2022-08-18T13:09:26;0.52;;;0.30;;
43706;SDS011;61348;53.392;-6.248;2022-08-18T13:12:13;0.60;;;0.60;;
43706;SDS011;61348;53.392;-6.248;2022-08-18T13:14:42;1.92;;;0.98;;
43706;SDS011;61348;53.392;-6.248;2022-08-18T13:17:10;2.60;;;0.30;;
43706;SDS011;61348;53.392;-6.248;2022-08-18T13:19:59;1.45;;;0.30;;
43706;SDS011;61348;53.392;-6.248;2022-08-18T13:22:35;0.40;;;0.30;;
43706;SDS011;61348;53.392;-6.248;2022-08-18T13:25:06;0.80;;;0.25;;
43706;SDS011;61348;53.392;-6.248;2022-08-18T13:27:35;0.32;;;0.13;;
43706;SDS011;61348;53.392;-6.248;2022-08-18T13:30:10;0.77;;;0.52;;
43706;SDS011;61348;53.392;-6.248;2022-08-18T13:32:56;0.93;;;0.20;;
43706;SDS011;61348;53.392;-6.248;2022-08-18T13:35:31;0.95;;;0.30;;
43706;SDS011;61348;53.392;-6.248;2022-08-18T13:38:03;0.40;;;0.20;;
43706;SDS011;61348;53.392;-6.248;2022-08-18T13:40:46;1.70;;;0.22;;
43706;SDS011;61348;53.392;-6.248;2022-08-18T13:43:14;0.63;;;0.32;;
43706;SDS011;61348;53.392;-6.248;2022-08-18T13:45:43;0.20;;;0.10;;
43706;SDS011;61348;53.392;-6.248;2022-08-18T13:48:18;0.73;;;0.30;;
43706;SDS011;61348;53.392;-6.248;2022-08-18T13:50:47;2.90;;;0.20;;
43706;SDS011;61348;53.392;-6.248;2022-08-18T13:53:18;2.20;;;0.55;;
43706;SDS011;61348;53.392;-6.248;2022-08-18T13:55:47;0.25;;;0.13;;
43706;SDS011;61348;53.392;-6.248;2022-08-18T13:58:15;0.50;;;0.20;;
43706;SDS011;61348;53.392;-6.248;2022-08-18T14:00:47;0.32;;;0.25;;
43706;SDS011;61348;53.392;-6.248;2022-08-18T14:03:19;0.20;;;0.20;;
43706;SDS011;61348;53.392;-6.248;2022-08-18T14:06:09;0.65;;;0.10;;
43706;SDS011;61348;53.392;-6.248;2022-08-18T14:08:39;0.13;;;0.13;;
43706;SDS011;61348;53.392;-6.248;2022-08-18T14:11:07;0.20;;;0.20;;
43706;SDS011;61348;53.392;-6.248;2022-08-18T14:13:34;0.10;;;0.10;;
43706;SDS011;61348;53.392;-6.248;2022-08-18T14:16:09;0.20;;;0.20;;
43706;SDS011;61348;53.392;-6.248;2022-08-18T14:18:45;1.25;;;0.30;;
43706;SDS011;61348;53.392;-6.248;2022-08-18T14:21:38;0.53;;;0.20;;
43706;SDS011;61348;53.392;-6.248;2022-08-18T14:24:28;0.30;;;0.30;;
43706;SDS011;61348;53.392;-6.248;2022-08-18T14:27:15;1.17;;;0.30;;
43706;SDS011;61348;53.392;-6.248;2022-08-18T14:29:43;0.30;;;0.28;;
43706;SDS011;61348;53.392;-6.248;2022-08-18T14:32:13;0.30;;;0.20;;
43706;SDS011;61348;53.392;-6.248;2022-08-18T14:34:55;0.85;;;0.43;;
43706;SDS011;61348;53.392;-6.248;2022-08-18T14:37:47;6.55;;;1.95;;
43706;SDS011;61348;53.392;-6.248;2022-08-18T14:40:15;0.63;;;0.35;;
43706;SDS011;61348;53.392;-6.248;2022-08-18T14:42:42;1.92;;;0.22;;
43706;SDS011;61348;53.392;-6.248;2022-08-18T14:45:20;0.35;;;0.20;;
43706;SDS011;61348;53.392;-6.248;2022-08-18T14:48:00;0.28;;;0.28;;
43706;SDS011;61348;53.392;-6.248;2022-08-18T14:50:33;1.23;;;0.28;;
43706;SDS011;61348;53.392;-6.248;2022-08-18T14:53:02;0.28;;;0.20;;
43706;SDS011;61348;53.392;-6.248;2022-08-18T14:55:29;1.48;;;0.10;;
43706;SDS011;61348;53.392;-6.248;2022-08-18T14:57:57;0.57;;;0.40;;
43706;SDS011;61348;53.392;-6.248;2022-08-18T15:00:29;0.28;;;0.20;;
43706;SDS011;61348;53.392;-6.248;2022-08-18T15:02:57;1.42;;;0.40;;
43706;SDS011;61348;53.392;-6.248;2022-08-18T15:05:25;0.20;;;0.20;;
43706;SDS011;61348;53.392;-6.248;2022-08-18T15:07:59;0.40;;;0.40;;
43706;SDS011;61348;53.392;-6.248;2022-08-18T15:10:31;0.85;;;0.20;;
43706;SDS011;61348;53.392;-6.248;2022-08-18T15:12:58;2.53;;;0.20;;
43706;SDS011;61348;53.392;-6.248;2022-08-18T15:15:26;1.85;;;0.20;;
43706;SDS011;61348;53.392;-6.248;2022-08-18T15:18:13;0.77;;;0.30;;
43706;SDS011;61348;53.392;-6.248;2022-08-18T15:20:49;1.55;;;0.30;;
43706;SDS011;61348;53.392;-6.248;2022-08-18T15:23:55;2.17;;;0.35;;
43706;SDS011;61348;53.392;-6.248;2022-08-18T15:26:46;0.40;;;0.10;;
43706;SDS011;61348;53.392;-6.248;2022-08-18T15:29:17;0.30;;;0.30;;
43706;SDS011;61348;53.392;-6.248;2022-08-18T15:31:52;0.20;;;0.10;;
43706;SDS011;61348;53.392;-6.248;2022-08-18T15:34:24;0.13;;;0.13;;
43706;SDS011;61348;53.392;-6.248;2022-08-18T15:36:52;0.20;;;0.15;;
43706;SDS011;61348;53.392;-6.248;2022-08-18T15:39:32;1.08;;;0.38;;
43706;SDS011;61348;53.392;-6.248;2022-08-18T15:42:00;0.25;;;0.25;;
43706;SDS011;61348;53.392;-6.248;2022-08-18T15:44:35;0.57;;;0.40;;
43706;SDS011;61348;53.392;-6.248;2022-08-18T15:47:03;0.20;;;0.20;;
43706;SDS011;61348;53.392;-6.248;2022-08-18T15:49:34;0.10;;;0.10;;
43706;SDS011;61348;53.392;-6.248;2022-08-18T15:52:02;0.45;;;0.20;;
43706;SDS011;61348;53.392;-6.248;2022-08-18T15:54:29;0.70;;;0.40;;
43706;SDS011;61348;53.392;-6.248;2022-08-18T15:56:56;0.40;;;0.30;;
43706;SDS011;61348;53.392;-6.248;2022-08-18T15:59:26;1.08;;;0.40;;
43706;SDS011;61348;53.392;-6.248;2022-08-18T16:02:05;0.30;;;0.30;;
43706;SDS011;61348;53.392;-6.248;2022-08-18T16:04:44;2.05;;;0.25;;
43706;SDS011;61348;53.392;-6.248;2022-08-18T16:07:11;1.10;;;0.40;;
43706;SDS011;61348;53.392;-6.248;2022-08-18T16:09:44;0.32;;;0.32;;
43706;SDS011;61348;53.392;-6.248;2022-08-18T16:12:11;0.30;;;0.30;;
43706;SDS011;61348;53.392;-6.248;2022-08-18T16:14:39;0.20;;;0.20;;
43706;SDS011;61348;53.392;-6.248;2022-08-18T16:17:06;0.52;;;0.30;;
43706;SDS011;61348;53.392;-6.248;2022-08-18T16:19:43;3.38;;;0.40;;
43706;SDS011;61348;53.392;-6.248;2022-08-18T16:22:10;1.67;;;0.50;;
43706;SDS011;61348;53.392;-6.248;2022-08-18T16:24:37;0.40;;;0.40;;
43706;SDS011;61348;53.392;-6.248;2022-08-18T16:27:03;1.00;;;0.22;;
43706;SDS011;61348;53.392;-6.248;2022-08-18T16:29:32;1.30;;;0.32;;
43706;SDS011;61348;53.392;-6.248;2022-08-18T16:31:58;0.57;;;0.20;;
43706;SDS011;61348;53.392;-6.248;2022-08-18T16:34:28;4.10;;;0.40;;
43706;SDS011;61348;53.392;-6.248;2022-08-18T16:36:56;1.63;;;0.32;;
43706;SDS011;61348;53.392;-6.248;2022-08-18T16:39:23;0.32;;;0.32;;
43706;SDS011;61348;53.392;-6.248;2022-08-18T16:41:50;0.57;;;0.20;;
43706;SDS011;61348;53.392;-6.248;2022-08-18T16:44:18;0.45;;;0.13;;
43706;SDS011;61348;53.392;-6.248;2022-08-18T16:46:45;0.28;;;0.28;;
43706;SDS011;61348;53.392;-6.248;2022-08-18T16:49:13;3.20;;;0.55;;
43706;SDS011;61348;53.392;-6.248;2022-08-18T16:51:41;0.57;;;0.40;;
43706;SDS011;61348;53.392;-6.248;2022-08-18T16:54:10;0.35;;;0.32;;
43706;SDS011;61348;53.392;-6.248;2022-08-18T16:56:36;6.60;;;0.50;;
43706;SDS011;61348;53.392;-6.248;2022-08-18T16:59:03;6.80;;;0.50;;
43706;SDS011;61348;53.392;-6.248;2022-08-18T17:01:50;1.17;;;0.30;;
43706;SDS011;61348;53.392;-6.248;2022-08-18T17:04:35;0.43;;;0.30;;
43706;SDS011;61348;53.392;-6.248;2022-08-18T17:07:03;2.00;;;0.43;;
43706;SDS011;61348;53.392;-6.248;2022-08-18T17:09:31;1.17;;;0.30;;
43706;SDS011;61348;53.392;-6.248;2022-08-18T17:11:59;2.60;;;0.50;;
43706;SDS011;61348;53.392;-6.248;2022-08-18T17:14:27;3.08;;;0.30;;
43706;SDS011;61348;53.392;-6.248;2022-08-18T17:16:55;0.52;;;0.40;;
43706;SDS011;61348;53.392;-6.248;2022-08-18T17:19:27;3.15;;;0.50;;
43706;SDS011;61348;53.392;-6.248;2022-08-18T17:21:56;1.10;;;0.45;;
43706;SDS011;61348;53.392;-6.248;2022-08-18T17:24:24;3.30;;;0.55;;
43706;SDS011;61348;53.392;-6.248;2022-08-18T17:30:06;2.70;;;0.50;;
43706;SDS011;61348;53.392;-6.248;2022-08-18T17:32:41;1.23;;;0.40;;